createdAt,value
2023-03-23T15:58:45.395Z,13.90
2023-03-23T16:01:23.140Z,13.80
2023-03-23T16:03:51.369Z,13.70
2023-03-23T16:06:24.844Z,13.70
2023-03-23T16:08:54.174Z,13.70
2023-03-23T16:11:22.748Z,13.80
2023-03-23T16:13:50.124Z,13.70
2023-03-23T16:16:18.734Z,13.60
2023-03-23T16:18:45.779Z,13.60
2023-03-23T16:21:12.765Z,13.50
2023-03-23T16:23:40.950Z,13.50
2023-03-23T16:26:07.911Z,13.40
2023-03-23T16:28:34.890Z,13.30
2023-03-23T16:31:01.859Z,13.20
2023-03-23T16:33:28.868Z,13.10
2023-03-23T16:35:58.752Z,13.10
2023-03-23T16:38:25.859Z,13.10
2023-03-23T16:40:52.790Z,12.90
2023-03-23T16:43:19.723Z,12.90
2023-03-23T16:45:47.222Z,12.80
2023-03-23T16:48:16.055Z,12.80
2023-03-23T16:50:43.819Z,12.70
2023-03-23T16:53:11.063Z,12.70
2023-03-23T16:55:38.652Z,12.70
2023-03-23T16:58:16.567Z,12.80
2023-03-23T17:00:45.629Z,12.70
2023-03-23T17:03:13.385Z,12.60
2023-03-23T17:05:41.044Z,12.70
2023-03-23T17:08:08.105Z,12.70
2023-03-23T17:10:37.789Z,12.60
2023-03-23T17:13:04.886Z,12.70
2023-03-23T17:15:31.838Z,12.50
2023-03-23T17:17:59.015Z,12.60
2023-03-23T17:20:26.015Z,12.50
2023-03-23T17:22:53.188Z,12.50
2023-03-23T17:25:20.137Z,12.60
2023-03-23T17:27:47.033Z,12.60
2023-03-23T17:30:13.957Z,12.50
2023-03-23T17:32:40.849Z,12.50
2023-03-23T17:35:08.029Z,12.50
2023-03-23T17:37:36.246Z,12.60
2023-03-23T17:40:04.006Z,12.60
2023-03-23T17:42:30.918Z,12.60
2023-03-23T17:44:57.825Z,12.60
2023-03-23T17:47:24.755Z,12.50
2023-03-23T17:49:51.764Z,12.50
2023-03-23T17:52:18.848Z,12.50
2023-03-23T17:54:45.897Z,12.50
2023-03-23T17:57:12.898Z,12.40
2023-03-23T17:59:39.787Z,12.40
2023-03-23T18:02:07.368Z,12.50
2023-03-23T18:04:34.314Z,12.40
2023-03-23T18:07:01.964Z,12.40
2023-03-23T18:09:28.893Z,12.30
2023-03-23T18:11:56.770Z,12.40
2023-03-23T18:14:23.951Z,12.40
2023-03-23T18:16:51.087Z,12.40
2023-03-23T18:19:18.036Z,12.30
2023-03-23T18:21:46.002Z,12.30
2023-03-23T18:24:13.282Z,12.20
2023-03-23T18:26:40.346Z,12.20
2023-03-23T18:29:07.273Z,12.10
2023-03-23T18:31:39.981Z,12.20
2023-03-23T18:34:07.649Z,12.10
2023-03-23T18:36:34.732Z,12.20
2023-03-23T18:39:01.742Z,12.10
2023-03-23T18:41:28.707Z,12.10
2023-03-23T18:43:57.529Z,12.00
2023-03-23T18:46:25.098Z,12.00
2023-03-23T18:48:52.279Z,11.90
2023-03-23T18:51:19.400Z,12.00
2023-03-23T18:53:46.288Z,11.90
2023-03-23T18:56:14.245Z,11.90
2023-03-23T18:58:41.500Z,11.80
2023-03-23T19:01:09.760Z,11.80
2023-03-23T19:03:37.441Z,11.70
2023-03-23T19:06:04.796Z,11.70
2023-03-23T19:08:31.866Z,11.60
2023-03-23T19:11:01.084Z,11.50
2023-03-23T19:13:29.057Z,11.50
2023-03-23T19:15:56.128Z,11.40
2023-03-23T19:18:23.120Z,11.30
2023-03-23T19:23:21.721Z,11.30
2023-03-23T19:25:48.988Z,11.20
2023-03-23T19:30:50.816Z,11.10
2023-03-23T19:33:17.757Z,11.10
2023-03-23T19:35:49.013Z,11.00
2023-03-23T19:38:17.679Z,11.10
2023-03-23T19:40:53.310Z,11.00
2023-03-23T19:43:22.682Z,11.00
2023-03-23T19:45:50.386Z,10.90
2023-03-23T19:48:17.805Z,10.90
2023-03-23T19:50:48.843Z,11.00
2023-03-23T19:53:18.944Z,10.90
2023-03-23T19:55:46.349Z,10.90
2023-03-23T19:58:14.126Z,10.90
2023-03-23T20:00:41.307Z,10.90
2023-03-23T20:03:08.857Z,10.90
2023-03-23T20:05:36.149Z,10.80
2023-03-23T20:08:04.730Z,10.80
2023-03-23T20:10:34.692Z,10.80
2023-03-23T20:13:02.397Z,10.70
2023-03-23T20:15:32.847Z,10.80
2023-03-23T20:18:00.497Z,10.80
2023-03-23T20:20:27.989Z,10.60
2023-03-23T20:22:57.791Z,10.70
2023-03-23T20:25:25.950Z,10.70
2023-03-23T20:27:55.053Z,10.60
2023-03-23T20:30:22.090Z,10.50
2023-03-23T20:32:49.076Z,10.60
2023-03-23T20:35:16.425Z,10.50
2023-03-23T20:37:43.403Z,10.40
2023-03-23T20:40:11.693Z,10.30
2023-03-23T20:42:39.039Z,10.30
2023-03-23T20:45:06.589Z,10.30
2023-03-23T20:47:33.566Z,10.30
2023-03-23T20:50:00.958Z,10.20
2023-03-23T20:52:27.935Z,10.20
2023-03-23T20:54:55.489Z,10.20
2023-03-23T20:57:22.508Z,10.00
2023-03-23T20:59:50.874Z,10.00
2023-03-23T21:02:18.550Z,9.90
2023-03-23T21:04:45.623Z,9.90
2023-03-23T21:07:15.415Z,9.90
2023-03-23T21:09:43.116Z,9.90
2023-03-23T21:12:10.624Z,9.90
2023-03-23T21:14:38.635Z,9.80
2023-03-23T21:17:06.223Z,9.80
2023-03-23T21:19:33.963Z,9.70
2023-03-23T21:22:01.058Z,9.70
2023-03-23T21:24:29.090Z,9.70
2023-03-23T21:26:57.251Z,9.60
2023-03-23T21:29:24.416Z,9.60
2023-03-23T21:32:00.914Z,9.50
2023-03-23T21:34:32.127Z,9.50
2023-03-23T21:36:59.089Z,9.50
2023-03-23T21:39:26.330Z,9.40
2023-03-23T21:41:53.277Z,9.40
2023-03-23T21:44:20.139Z,9.40
2023-03-23T21:46:47.002Z,9.40
2023-03-23T21:49:14.488Z,9.40
2023-03-23T21:51:41.879Z,9.30
2023-03-23T21:54:10.031Z,9.30
2023-03-23T21:56:37.747Z,9.30
2023-03-23T21:59:07.494Z,9.30
2023-03-23T22:01:36.980Z,9.20
2023-03-23T22:04:04.370Z,9.20
2023-03-23T22:06:31.582Z,9.20
2023-03-23T22:08:58.634Z,9.20
2023-03-23T22:11:27.030Z,9.20
2023-03-23T22:13:54.905Z,9.20
2023-03-23T22:16:22.469Z,9.10
2023-03-23T22:18:50.264Z,9.10
2023-03-23T22:21:17.902Z,9.10
2023-03-23T22:23:45.666Z,9.10
2023-03-23T22:26:13.298Z,9.00
2023-03-23T22:28:40.882Z,9.00
2023-03-23T22:31:11.974Z,9.00
2023-03-23T22:33:39.270Z,9.00
2023-03-23T22:36:06.812Z,9.00
2023-03-23T22:38:34.617Z,8.90
2023-03-23T22:41:02.751Z,9.00
2023-03-23T22:43:29.871Z,9.00
2023-03-23T22:45:56.973Z,9.00
2023-03-23T22:48:24.738Z,9.00
2023-03-23T22:50:51.830Z,8.90
2023-03-23T22:53:19.378Z,8.90
2023-03-23T22:55:47.637Z,8.90
2023-03-23T22:58:15.575Z,8.90
2023-03-23T23:00:47.414Z,8.80
2023-03-23T23:03:15.011Z,8.80
2023-03-23T23:05:46.741Z,8.80
2023-03-23T23:08:16.560Z,8.80
2023-03-23T23:10:46.293Z,8.80
2023-03-23T23:13:13.631Z,8.80
2023-03-23T23:15:42.716Z,8.80
2023-03-23T23:18:10.346Z,8.80
2023-03-23T23:20:37.849Z,8.80
2023-03-23T23:23:05.724Z,8.80
2023-03-23T23:25:33.284Z,8.80
2023-03-23T23:28:01.297Z,8.80
2023-03-23T23:30:28.739Z,8.70
2023-03-23T23:32:56.823Z,8.80
2023-03-23T23:35:24.146Z,8.80
2023-03-23T23:37:51.315Z,8.70
2023-03-23T23:40:18.917Z,8.70
2023-03-23T23:42:47.029Z,8.70
2023-03-23T23:45:14.326Z,8.70
2023-03-23T23:47:41.947Z,8.70
2023-03-23T23:50:10.128Z,8.70
2023-03-23T23:52:38.057Z,8.70
2023-03-23T23:55:06.826Z,8.70
2023-03-23T23:57:34.170Z,8.70
